sensor_id;sensor_type;location;lat;lon;timestamp;temperature;humidity
21149;DHT22;10732;51.472;6.466;2023-03-11T00:00:58;1.20;99.90
21149;DHT22;10732;51.472;6.466;2023-03-11T00:03:24;1.20;99.90
21149;DHT22;10732;51.472;6.466;2023-03-11T00:05:53;1.20;99.90
21149;DHT22;10732;51.472;6.466;2023-03-11T00:08:22;1.20;99.90
21149;DHT22;10732;51.472;6.466;2023-03-11T00:10:53;1.20;99.90
21149;DHT22;10732;51.472;6.466;2023-03-11T00:13:19;1.20;99.90
21149;DHT22;10732;51.472;6.466;2023-03-11T00:15:47;1.10;99.90
21149;DHT22;10732;51.472;6.466;2023-03-11T00:18:13;1.10;99.90
21149;DHT22;10732;51.472;6.466;2023-03-11T00:20:41;1.10;99.90
21149;DHT22;10732;51.472;6.466;2023-03-11T00:23:08;1.10;99.90
21149;DHT22;10732;51.472;6.466;2023-03-11T00:25:35;1.10;99.90
21149;DHT22;10732;51.472;6.466;2023-03-11T00:28:02;1.10;99.90
21149;DHT22;10732;51.472;6.466;2023-03-11T00:30:28;1.20;99.90
21149;DHT22;10732;51.472;6.466;2023-03-11T00:32:56;1.20;99.90
21149;DHT22;10732;51.472;6.466;2023-03-11T00:35:28;1.20;99.90
21149;DHT22;10732;51.472;6.466;2023-03-11T00:37:55;1.20;99.90
21149;DHT22;10732;51.472;6.466;2023-03-11T00:40:24;1.20;99.90
21149;DHT22;10732;51.472;6.466;2023-03-11T00:42:50;1.20;99.90
21149;DHT22;10732;51.472;6.466;2023-03-11T00:45:16;1.20;99.90
21149;DHT22;10732;51.472;6.466;2023-03-11T00:47:42;1.20;99.90
21149;DHT22;10732;51.472;6.466;2023-03-11T00:50:09;1.20;99.90
21149;DHT22;10732;51.472;6.466;2023-03-11T00:52:38;1.20;99.90
21149;DHT22;10732;51.472;6.466;2023-03-11T00:55:05;1.20;99.90
21149;DHT22;10732;51.472;6.466;2023-03-11T00:57:31;1.20;99.90
21149;DHT22;10732;51.472;6.466;2023-03-11T00:59:58;1.10;99.90
21149;DHT22;10732;51.472;6.466;2023-03-11T01:02:23;1.10;99.90
21149;DHT22;10732;51.472;6.466;2023-03-11T01:04:53;1.10;99.90
21149;DHT22;10732;51.472;6.466;2023-03-11T01:07:20;1.10;99.90
21149;DHT22;10732;51.472;6.466;2023-03-11T01:09:45;1.00;99.90
21149;DHT22;10732;51.472;6.466;2023-03-11T01:12:11;1.00;99.90
21149;DHT22;10732;51.472;6.466;2023-03-11T01:14:36;0.80;99.90
21149;DHT22;10732;51.472;6.466;2023-03-11T01:17:02;0.90;99.90
21149;DHT22;10732;51.472;6.466;2023-03-11T01:19:27;0.80;99.90
21149;DHT22;10732;51.472;6.466;2023-03-11T01:21:53;0.70;99.90
21149;DHT22;10732;51.472;6.466;2023-03-11T01:24:18;0.60;99.90
21149;DHT22;10732;51.472;6.466;2023-03-11T01:26:44;0.40;99.90
21149;DHT22;10732;51.472;6.466;2023-03-11T01:29:09;0.40;99.90
21149;DHT22;10732;51.472;6.466;2023-03-11T01:31:35;0.40;99.90
21149;DHT22;10732;51.472;6.466;2023-03-11T01:34:00;0.30;99.90
21149;DHT22;10732;51.472;6.466;2023-03-11T01:36:26;0.20;99.90
21149;DHT22;10732;51.472;6.466;2023-03-11T01:38:52;0.20;99.90
21149;DHT22;10732;51.472;6.466;2023-03-11T01:41:17;0.20;99.90
21149;DHT22;10732;51.472;6.466;2023-03-11T01:48:57;0.20;99.90
21149;DHT22;10732;51.472;6.466;2023-03-11T01:51:32;0.20;99.90
21149;DHT22;10732;51.472;6.466;2023-03-11T01:54:03;0.20;99.90
21149;DHT22;10732;51.472;6.466;2023-03-11T01:56:30;0.20;99.90
21149;DHT22;10732;51.472;6.466;2023-03-11T01:58:56;0.20;99.90
21149;DHT22;10732;51.472;6.466;2023-03-11T02:01:23;0.10;99.90
21149;DHT22;10732;51.472;6.466;2023-03-11T02:03:50;0.00;99.90
21149;DHT22;10732;51.472;6.466;2023-03-11T02:06:21;0.00;99.90
21149;DHT22;10732;51.472;6.466;2023-03-11T02:08:48;0.00;99.90
21149;DHT22;10732;51.472;6.466;2023-03-11T02:11:25;0.00;99.90
21149;DHT22;10732;51.472;6.466;2023-03-11T02:13:53;0.00;99.90
21149;DHT22;10732;51.472;6.466;2023-03-11T02:16:20;0.00;99.90
21149;DHT22;10732;51.472;6.466;2023-03-11T02:18:46;0.00;99.90
21149;DHT22;10732;51.472;6.466;2023-03-11T02:21:26;-0.10;99.90
21149;DHT22;10732;51.472;6.466;2023-03-11T02:27:00;-0.10;99.90
21149;DHT22;10732;51.472;6.466;2023-03-11T02:29:27;-0.20;99.90
21149;DHT22;10732;51.472;6.466;2023-03-11T02:31:55;-0.20;99.90
21149;DHT22;10732;51.472;6.466;2023-03-11T02:34:33;-0.30;99.90
21149;DHT22;10732;51.472;6.466;2023-03-11T02:36:59;-0.30;99.90
21149;DHT22;10732;51.472;6.466;2023-03-11T02:39:33;-0.30;99.90
21149;DHT22;10732;51.472;6.466;2023-03-11T02:42:03;-0.30;99.90
21149;DHT22;10732;51.472;6.466;2023-03-11T02:44:29;-0.40;99.90
21149;DHT22;10732;51.472;6.466;2023-03-11T02:46:56;-0.40;99.90
21149;DHT22;10732;51.472;6.466;2023-03-11T02:49:21;-0.50;99.90
21149;DHT22;10732;51.472;6.466;2023-03-11T02:51:47;-0.50;99.90
21149;DHT22;10732;51.472;6.466;2023-03-11T02:54:13;-0.50;99.90
21149;DHT22;10732;51.472;6.466;2023-03-11T02:56:38;-0.60;99.90
21149;DHT22;10732;51.472;6.466;2023-03-11T02:59:04;-0.60;99.90
21149;DHT22;10732;51.472;6.466;2023-03-11T03:01:30;-0.50;99.90
21149;DHT22;10732;51.472;6.466;2023-03-11T03:03:55;-0.60;99.90
21149;DHT22;10732;51.472;6.466;2023-03-11T03:06:21;-0.60;99.90
21149;DHT22;10732;51.472;6.466;2023-03-11T03:08:47;-0.50;99.90
21149;DHT22;10732;51.472;6.466;2023-03-11T03:11:12;-0.50;99.90
21149;DHT22;10732;51.472;6.466;2023-03-11T03:13:38;-0.50;99.90
21149;DHT22;10732;51.472;6.466;2023-03-11T03:16:04;-0.50;99.90
21149;DHT22;10732;51.472;6.466;2023-03-11T03:18:30;-0.50;99.90
21149;DHT22;10732;51.472;6.466;2023-03-11T03:20:55;-0.60;99.90
21149;DHT22;10732;51.472;6.466;2023-03-11T03:23:21;-0.50;99.90
21149;DHT22;10732;51.472;6.466;2023-03-11T03:25:46;-0.50;99.90
21149;DHT22;10732;51.472;6.466;2023-03-11T03:28:12;-0.60;99.90
21149;DHT22;10732;51.472;6.466;2023-03-11T03:30:38;-0.60;99.90
21149;DHT22;10732;51.472;6.466;2023-03-11T03:33:05;-0.60;99.90
21149;DHT22;10732;51.472;6.466;2023-03-11T03:35:31;-0.60;99.90
21149;DHT22;10732;51.472;6.466;2023-03-11T03:37:57;-0.70;99.90
21149;DHT22;10732;51.472;6.466;2023-03-11T03:40:23;-0.60;99.90
21149;DHT22;10732;51.472;6.466;2023-03-11T03:42:49;-0.70;99.90
21149;DHT22;10732;51.472;6.466;2023-03-11T03:45:15;-0.70;99.90
21149;DHT22;10732;51.472;6.466;2023-03-11T03:47:40;-0.70;99.90
21149;DHT22;10732;51.472;6.466;2023-03-11T03:50:08;-0.70;99.90
21149;DHT22;10732;51.472;6.466;2023-03-11T03:52:35;-0.70;99.90
21149;DHT22;10732;51.472;6.466;2023-03-11T03:55:01;-0.70;99.90
21149;DHT22;10732;51.472;6.466;2023-03-11T03:57:27;-0.70;99.90
21149;DHT22;10732;51.472;6.466;2023-03-11T03:59:53;-0.70;99.90
21149;DHT22;10732;51.472;6.466;2023-03-11T04:02:19;-0.70;99.90
21149;DHT22;10732;51.472;6.466;2023-03-11T04:04:46;-0.70;99.90
21149;DHT22;10732;51.472;6.466;2023-03-11T04:07:11;-0.70;99.90
21149;DHT22;10732;51.472;6.466;2023-03-11T04:09:41;-0.70;99.90
21149;DHT22;10732;51.472;6.466;2023-03-11T04:12:12;-0.80;99.90
21149;DHT22;10732;51.472;6.466;2023-03-11T04:14:37;-0.80;99.90
21149;DHT22;10732;51.472;6.466;2023-03-11T04:17:03;-0.80;99.90
21149;DHT22;10732;51.472;6.466;2023-03-11T04:19:29;-0.80;99.90
21149;DHT22;10732;51.472;6.466;2023-03-11T04:21:54;-0.90;99.90
21149;DHT22;10732;51.472;6.466;2023-03-11T04:24:20;-0.90;99.90
21149;DHT22;10732;51.472;6.466;2023-03-11T04:26:45;-0.90;99.90
21149;DHT22;10732;51.472;6.466;2023-03-11T04:29:11;-0.90;99.90
21149;DHT22;10732;51.472;6.466;2023-03-11T04:31:36;-0.90;99.90
21149;DHT22;10732;51.472;6.466;2023-03-11T04:34:02;-0.80;99.90
21149;DHT22;10732;51.472;6.466;2023-03-11T04:36:27;-0.80;99.90
21149;DHT22;10732;51.472;6.466;2023-03-11T04:38:55;-0.70;99.90
21149;DHT22;10732;51.472;6.466;2023-03-11T04:41:21;-0.60;99.90
21149;DHT22;10732;51.472;6.466;2023-03-11T04:43:46;-0.50;99.90
21149;DHT22;10732;51.472;6.466;2023-03-11T04:46:12;-0.50;99.90
21149;DHT22;10732;51.472;6.466;2023-03-11T04:48:38;-0.40;99.90
21149;DHT22;10732;51.472;6.466;2023-03-11T04:51:03;-0.40;99.90
21149;DHT22;10732;51.472;6.466;2023-03-11T04:53:29;-0.40;99.90
21149;DHT22;10732;51.472;6.466;2023-03-11T04:55:54;-0.40;99.90
21149;DHT22;10732;51.472;6.466;2023-03-11T04:58:20;-0.40;99.90
21149;DHT22;10732;51.472;6.466;2023-03-11T05:00:46;-0.40;99.90
21149;DHT22;10732;51.472;6.466;2023-03-11T05:03:11;-0.40;99.90
21149;DHT22;10732;51.472;6.466;2023-03-11T05:05:37;-0.50;99.90
21149;DHT22;10732;51.472;6.466;2023-03-11T05:08:03;-0.50;99.90
21149;DHT22;10732;51.472;6.466;2023-03-11T05:10:29;-0.50;99.90
21149;DHT22;10732;51.472;6.466;2023-03-11T05:12:54;-0.50;99.90
21149;DHT22;10732;51.472;6.466;2023-03-11T05:15:20;-0.50;99.90
21149;DHT22;10732;51.472;6.466;2023-03-11T05:17:46;-0.50;99.90
21149;DHT22;10732;51.472;6.466;2023-03-11T05:20:12;-0.40;99.90
21149;DHT22;10732;51.472;6.466;2023-03-11T05:22:38;-0.50;99.90
21149;DHT22;10732;51.472;6.466;2023-03-11T05:25:04;-0.40;99.90
21149;DHT22;10732;51.472;6.466;2023-03-11T05:27:30;-0.50;99.90
21149;DHT22;10732;51.472;6.466;2023-03-11T05:29:56;-0.50;99.90
21149;DHT22;10732;51.472;6.466;2023-03-11T05:32:21;-0.50;99.90
21149;DHT22;10732;51.472;6.466;2023-03-11T05:34:47;-0.60;99.90
21149;DHT22;10732;51.472;6.466;2023-03-11T05:37:12;-0.70;99.90
21149;DHT22;10732;51.472;6.466;2023-03-11T05:39:38;-0.70;99.90
21149;DHT22;10732;51.472;6.466;2023-03-11T05:42:05;-0.70;99.90
21149;DHT22;10732;51.472;6.466;2023-03-11T05:44:31;-0.70;99.90
21149;DHT22;10732;51.472;6.466;2023-03-11T05:46:57;-0.70;99.90
21149;DHT22;10732;51.472;6.466;2023-03-11T05:49:23;-0.70;99.90
21149;DHT22;10732;51.472;6.466;2023-03-11T05:51:49;-0.70;99.90
21149;DHT22;10732;51.472;6.466;2023-03-11T05:54:19;-0.70;99.90
21149;DHT22;10732;51.472;6.466;2023-03-11T05:56:45;-0.70;99.90
21149;DHT22;10732;51.472;6.466;2023-03-11T05:59:13;-0.70;99.90
21149;DHT22;10732;51.472;6.466;2023-03-11T06:01:39;-0.70;99.90
21149;DHT22;10732;51.472;6.466;2023-03-11T06:04:05;-0.80;99.90
21149;DHT22;10732;51.472;6.466;2023-03-11T06:06:30;-0.80;99.90
21149;DHT22;10732;51.472;6.466;2023-03-11T06:08:56;-0.80;99.90
21149;DHT22;10732;51.472;6.466;2023-03-11T06:11:22;-0.90;99.90
21149;DHT22;10732;51.472;6.466;2023-03-11T06:13:52;-0.90;99.90
21149;DHT22;10732;51.472;6.466;2023-03-11T06:16:19;-0.90;99.90
21149;DHT22;10732;51.472;6.466;2023-03-11T06:18:44;-0.90;99.90
21149;DHT22;10732;51.472;6.466;2023-03-11T06:21:23;-0.80;99.90
21149;DHT22;10732;51.472;6.466;2023-03-11T06:23:50;-0.80;99.90
21149;DHT22;10732;51.472;6.466;2023-03-11T06:26:18;-0.80;99.90
21149;DHT22;10732;51.472;6.466;2023-03-11T06:28:45;-0.80;99.90
21149;DHT22;10732;51.472;6.466;2023-03-11T06:31:18;-0.70;99.90
21149;DHT22;10732;51.472;6.466;2023-03-11T06:33:45;-0.70;99.90
21149;DHT22;10732;51.472;6.466;2023-03-11T06:36:13;-0.70;99.90
21149;DHT22;10732;51.472;6.466;2023-03-11T06:38:38;-0.70;99.90
21149;DHT22;10732;51.472;6.466;2023-03-11T06:41:05;-0.70;99.90
21149;DHT22;10732;51.472;6.466;2023-03-11T06:43:31;-0.70;99.90
21149;DHT22;10732;51.472;6.466;2023-03-11T06:45:57;-0.60;99.90
21149;DHT22;10732;51.472;6.466;2023-03-11T06:48:23;-0.60;99.90
21149;DHT22;10732;51.472;6.466;2023-03-11T06:50:57;-0.50;99.90
21149;DHT22;10732;51.472;6.466;2023-03-11T06:53:23;-0.40;99.90
21149;DHT22;10732;51.472;6.466;2023-03-11T06:56:05;-0.30;99.90
21149;DHT22;10732;51.472;6.466;2023-03-11T06:58:32;-0.30;99.90
21149;DHT22;10732;51.472;6.466;2023-03-11T07:01:03;-0.20;99.90
21149;DHT22;10732;51.472;6.466;2023-03-11T07:03:29;-0.20;99.90
21149;DHT22;10732;51.472;6.466;2023-03-11T07:05:55;-0.10;99.90
21149;DHT22;10732;51.472;6.466;2023-03-11T07:08:21;0.00;99.90
21149;DHT22;10732;51.472;6.466;2023-03-11T07:10:46;0.10;99.90
21149;DHT22;10732;51.472;6.466;2023-03-11T07:13:23;0.10;99.90
21149;DHT22;10732;51.472;6.466;2023-03-11T07:15:48;0.20;99.90
21149;DHT22;10732;51.472;6.466;2023-03-11T07:18:14;0.20;99.90
21149;DHT22;10732;51.472;6.466;2023-03-11T07:20:39;0.30;99.90
21149;DHT22;10732;51.472;6.466;2023-03-11T07:23:05;0.30;99.90
21149;DHT22;10732;51.472;6.466;2023-03-11T07:25:30;0.40;99.90
21149;DHT22;10732;51.472;6.466;2023-03-11T07:27:56;0.50;99.90
21149;DHT22;10732;51.472;6.466;2023-03-11T07:30:21;0.60;99.90
21149;DHT22;10732;51.472;6.466;2023-03-11T07:32:47;0.70;99.90
21149;DHT22;10732;51.472;6.466;2023-03-11T07:35:12;0.80;99.90
21149;DHT22;10732;51.472;6.466;2023-03-11T07:37:38;0.80;99.90
21149;DHT22;10732;51.472;6.466;2023-03-11T07:40:04;0.90;99.90
21149;DHT22;10732;51.472;6.466;2023-03-11T07:42:29;1.00;99.90
21149;DHT22;10732;51.472;6.466;2023-03-11T07:44:55;1.00;99.90
21149;DHT22;10732;51.472;6.466;2023-03-11T07:47:20;1.20;99.90
21149;DHT22;10732;51.472;6.466;2023-03-11T07:49:46;2.20;99.90
21149;DHT22;10732;51.472;6.466;2023-03-11T07:52:11;3.70;99.90
21149;DHT22;10732;51.472;6.466;2023-03-11T07:54:37;5.70;99.90
21149;DHT22;10732;51.472;6.466;2023-03-11T07:57:02;7.00;99.90
21149;DHT22;10732;51.472;6.466;2023-03-11T07:59:28;7.50;99.90
21149;DHT22;10732;51.472;6.466;2023-03-11T08:01:54;7.40;99.90
21149;DHT22;10732;51.472;6.466;2023-03-11T08:04:19;7.80;99.90
21149;DHT22;10732;51.472;6.466;2023-03-11T08:06:46;8.90;99.90
21149;DHT22;10732;51.472;6.466;2023-03-11T08:09:12;9.30;99.90
21149;DHT22;10732;51.472;6.466;2023-03-11T08:11:37;8.50;99.90
21149;DHT22;10732;51.472;6.466;2023-03-11T08:14:03;8.30;99.90
21149;DHT22;10732;51.472;6.466;2023-03-11T08:16:29;8.20;99.90
21149;DHT22;10732;51.472;6.466;2023-03-11T08:18:56;8.40;99.90
21149;DHT22;10732;51.472;6.466;2023-03-11T08:21:26;8.50;99.90
21149;DHT22;10732;51.472;6.466;2023-03-11T08:23:56;7.90;99.90
21149;DHT22;10732;51.472;6.466;2023-03-11T08:26:23;8.10;99.90
21149;DHT22;10732;51.472;6.466;2023-03-11T08:28:48;8.70;99.90
21149;DHT22;10732;51.472;6.466;2023-03-11T08:31:20;9.30;99.90
21149;DHT22;10732;51.472;6.466;2023-03-11T08:33:48;10.10;99.90
21149;DHT22;10732;51.472;6.466;2023-03-11T08:36:17;9.50;99.90
21149;DHT22;10732;51.472;6.466;2023-03-11T08:38:43;8.80;99.90
21149;DHT22;10732;51.472;6.466;2023-03-11T08:41:09;9.20;99.90
21149;DHT22;10732;51.472;6.466;2023-03-11T08:43:35;9.10;99.90
21149;DHT22;10732;51.472;6.466;2023-03-11T08:46:02;9.40;99.90
21149;DHT22;10732;51.472;6.466;2023-03-11T08:48:28;9.60;99.90
21149;DHT22;10732;51.472;6.466;2023-03-11T08:50:54;10.10;99.90
21149;DHT22;10732;51.472;6.466;2023-03-11T08:53:21;10.30;99.90
21149;DHT22;10732;51.472;6.466;2023-03-11T08:55:48;10.70;99.90
21149;DHT22;10732;51.472;6.466;2023-03-11T08:58:14;11.20;99.90
21149;DHT22;10732;51.472;6.466;2023-03-11T09:00:40;11.80;99.90
21149;DHT22;10732;51.472;6.466;2023-03-11T09:03:05;11.10;99.90
21149;DHT22;10732;51.472;6.466;2023-03-11T09:05:31;10.80;99.90
21149;DHT22;10732;51.472;6.466;2023-03-11T09:07:56;10.30;99.90
21149;DHT22;10732;51.472;6.466;2023-03-11T09:10:22;10.40;99.90
21149;DHT22;10732;51.472;6.466;2023-03-11T09:12:47;10.80;99.90
21149;DHT22;10732;51.472;6.466;2023-03-11T09:15:13;10.80;99.90
21149;DHT22;10732;51.472;6.466;2023-03-11T09:17:38;10.50;99.90
21149;DHT22;10732;51.472;6.466;2023-03-11T09:20:04;10.80;99.90
21149;DHT22;10732;51.472;6.466;2023-03-11T09:22:30;11.10;99.90
21149;DHT22;10732;51.472;6.466;2023-03-11T09:24:56;11.20;99.90
21149;DHT22;10732;51.472;6.466;2023-03-11T09:27:22;10.40;99.90
21149;DHT22;10732;51.472;6.466;2023-03-11T09:29:48;10.60;99.90
21149;DHT22;10732;51.472;6.466;2023-03-11T09:32:14;11.00;99.90
21149;DHT22;10732;51.472;6.466;2023-03-11T09:34:40;11.00;99.90
21149;DHT22;10732;51.472;6.466;2023-03-11T09:37:06;12.40;99.90
21149;DHT22;10732;51.472;6.466;2023-03-11T09:39:31;11.80;99.90
21149;DHT22;10732;51.472;6.466;2023-03-11T09:42:02;11.70;99.90
21149;DHT22;10732;51.472;6.466;2023-03-11T09:44:56;12.10;99.90
21149;DHT22;10732;51.472;6.466;2023-03-11T09:47:38;12.40;99.90
21149;DHT22;10732;51.472;6.466;2023-03-11T09:50:19;11.30;99.90
21149;DHT22;10732;51.472;6.466;2023-03-11T09:58:11;12.60;99.90
21149;DHT22;10732;51.472;6.466;2023-03-11T10:00:38;12.40;99.90
21149;DHT22;10732;51.472;6.466;2023-03-11T10:03:10;11.80;99.90
21149;DHT22;10732;51.472;6.466;2023-03-11T10:05:37;11.20;99.90
21149;DHT22;10732;51.472;6.466;2023-03-11T10:08:22;10.70;99.90
21149;DHT22;10732;51.472;6.466;2023-03-11T10:10:58;10.80;99.90
21149;DHT22;10732;51.472;6.466;2023-03-11T10:13:40;11.00;99.90
21149;DHT22;10732;51.472;6.466;2023-03-11T10:16:34;11.50;99.90
21149;DHT22;10732;51.472;6.466;2023-03-11T10:22:01;11.20;99.90
21149;DHT22;10732;51.472;6.466;2023-03-11T10:25:12;11.10;99.90
21149;DHT22;10732;51.472;6.466;2023-03-11T10:27:45;11.10;99.90
21149;DHT22;10732;51.472;6.466;2023-03-11T10:30:22;11.00;99.90
21149;DHT22;10732;51.472;6.466;2023-03-11T10:32:51;11.10;99.90
21149;DHT22;10732;51.472;6.466;2023-03-11T10:35:29;10.90;99.90
21149;DHT22;10732;51.472;6.466;2023-03-11T10:38:02;10.70;99.90
21149;DHT22;10732;51.472;6.466;2023-03-11T10:40:41;11.10;99.90
21149;DHT22;10732;51.472;6.466;2023-03-11T10:45:47;11.10;99.90
21149;DHT22;10732;51.472;6.466;2023-03-11T10:48:17;11.00;99.90
21149;DHT22;10732;51.472;6.466;2023-03-11T10:51:02;10.70;99.90
21149;DHT22;10732;51.472;6.466;2023-03-11T10:53:29;10.90;99.90
21149;DHT22;10732;51.472;6.466;2023-03-11T10:55:58;10.60;99.90
21149;DHT22;10732;51.472;6.466;2023-03-11T10:58:29;10.10;99.90
21149;DHT22;10732;51.472;6.466;2023-03-11T11:03:35;10.40;99.90
21149;DHT22;10732;51.472;6.466;2023-03-11T11:06:06;10.60;99.90
21149;DHT22;10732;51.472;6.466;2023-03-11T11:08:32;11.00;99.90
21149;DHT22;10732;51.472;6.466;2023-03-11T11:11:00;10.40;99.90
21149;DHT22;10732;51.472;6.466;2023-03-11T11:13:31;10.10;99.90
21149;DHT22;10732;51.472;6.466;2023-03-11T11:16:18;10.10;99.90
21149;DHT22;10732;51.472;6.466;2023-03-11T11:18:56;9.40;99.90
21149;DHT22;10732;51.472;6.466;2023-03-11T11:21:32;9.50;99.90
21149;DHT22;10732;51.472;6.466;2023-03-11T11:24:29;9.80;99.90
21149;DHT22;10732;51.472;6.466;2023-03-11T11:27:25;10.40;99.90
21149;DHT22;10732;51.472;6.466;2023-03-11T11:32:33;9.80;99.90
21149;DHT22;10732;51.472;6.466;2023-03-11T11:35:13;9.40;99.90
21149;DHT22;10732;51.472;6.466;2023-03-11T11:37:46;9.40;99.90
21149;DHT22;10732;51.472;6.466;2023-03-11T11:42:45;11.40;99.90
21149;DHT22;10732;51.472;6.466;2023-03-11T11:45:35;10.90;99.90
21149;DHT22;10732;51.472;6.466;2023-03-11T11:48:23;11.30;99.90
21149;DHT22;10732;51.472;6.466;2023-03-11T11:50:53;10.90;99.90
21149;DHT22;10732;51.472;6.466;2023-03-11T11:56:04;10.80;99.90
21149;DHT22;10732;51.472;6.466;2023-03-11T11:58:30;10.50;99.90
21149;DHT22;10732;51.472;6.466;2023-03-11T12:01:15;11.00;99.90
21149;DHT22;10732;51.472;6.466;2023-03-11T12:11:30;7.60;99.90
21149;DHT22;10732;51.472;6.466;2023-03-11T12:16:57;7.90;99.90
21149;DHT22;10732;51.472;6.466;2023-03-11T12:30:29;8.50;99.90
21149;DHT22;10732;51.472;6.466;2023-03-11T12:33:02;8.80;99.90
21149;DHT22;10732;51.472;6.466;2023-03-11T12:35:33;9.10;99.90
21149;DHT22;10732;51.472;6.466;2023-03-11T12:46:13;8.40;99.90
21149;DHT22;10732;51.472;6.466;2023-03-11T12:48:47;8.40;99.90
21149;DHT22;10732;51.472;6.466;2023-03-11T12:51:37;8.50;99.90
21149;DHT22;10732;51.472;6.466;2023-03-11T12:54:28;8.40;99.90
21149;DHT22;10732;51.472;6.466;2023-03-11T12:57:00;8.30;99.90
21149;DHT22;10732;51.472;6.466;2023-03-11T13:00:04;7.90;99.90
21149;DHT22;10732;51.472;6.466;2023-03-11T13:08:25;7.90;99.90
21149;DHT22;10732;51.472;6.466;2023-03-11T13:10:53;8.10;99.90
21149;DHT22;10732;51.472;6.466;2023-03-11T13:15:55;8.00;99.90
21149;DHT22;10732;51.472;6.466;2023-03-11T13:18:26;8.10;99.90
21149;DHT22;10732;51.472;6.466;2023-03-11T13:20:59;8.10;99.90
21149;DHT22;10732;51.472;6.466;2023-03-11T13:23:37;8.20;99.90
21149;DHT22;10732;51.472;6.466;2023-03-11T13:34:46;7.80;99.90
21149;DHT22;10732;51.472;6.466;2023-03-11T13:37:43;8.00;99.90
21149;DHT22;10732;51.472;6.466;2023-03-11T13:40:32;7.70;99.90
21149;DHT22;10732;51.472;6.466;2023-03-11T13:43:03;7.70;99.90
21149;DHT22;10732;51.472;6.466;2023-03-11T13:45:34;7.20;99.90
21149;DHT22;10732;51.472;6.466;2023-03-11T13:48:04;7.20;99.90
21149;DHT22;10732;51.472;6.466;2023-03-11T13:50:36;7.50;99.90
21149;DHT22;10732;51.472;6.466;2023-03-11T13:53:19;7.60;99.90
21149;DHT22;10732;51.472;6.466;2023-03-11T13:55:46;7.30;99.90
21149;DHT22;10732;51.472;6.466;2023-03-11T13:58:23;7.20;99.90
21149;DHT22;10732;51.472;6.466;2023-03-11T14:00:57;7.10;99.90
21149;DHT22;10732;51.472;6.466;2023-03-11T14:03:24;6.70;99.90
21149;DHT22;10732;51.472;6.466;2023-03-11T14:06:04;6.60;99.90
21149;DHT22;10732;51.472;6.466;2023-03-11T14:08:35;6.70;99.90
21149;DHT22;10732;51.472;6.466;2023-03-11T14:13:31;7.20;99.90
21149;DHT22;10732;51.472;6.466;2023-03-11T14:18:32;7.30;99.90
21149;DHT22;10732;51.472;6.466;2023-03-11T14:20:58;7.30;99.90
21149;DHT22;10732;51.472;6.466;2023-03-11T14:23:32;7.00;99.90
21149;DHT22;10732;51.472;6.466;2023-03-11T14:26:08;7.20;99.90
21149;DHT22;10732;51.472;6.466;2023-03-11T14:28:39;7.20;99.90
21149;DHT22;10732;51.472;6.466;2023-03-11T14:31:05;7.20;99.90
21149;DHT22;10732;51.472;6.466;2023-03-11T14:33:31;7.00;99.90
21149;DHT22;10732;51.472;6.466;2023-03-11T14:36:01;7.20;99.90
21149;DHT22;10732;51.472;6.466;2023-03-11T14:38:30;7.10;99.90
21149;DHT22;10732;51.472;6.466;2023-03-11T14:41:03;7.00;99.90
21149;DHT22;10732;51.472;6.466;2023-03-11T14:43:36;7.20;99.90
21149;DHT22;10732;51.472;6.466;2023-03-11T14:46:05;7.30;99.90
21149;DHT22;10732;51.472;6.466;2023-03-11T14:48:39;7.40;99.90
21149;DHT22;10732;51.472;6.466;2023-03-11T14:51:12;7.60;99.90
21149;DHT22;10732;51.472;6.466;2023-03-11T14:54:03;7.60;99.90
21149;DHT22;10732;51.472;6.466;2023-03-11T14:56:30;7.50;99.90
21149;DHT22;10732;51.472;6.466;2023-03-11T15:01:38;7.30;99.90
21149;DHT22;10732;51.472;6.466;2023-03-11T15:06:52;7.30;99.90
21149;DHT22;10732;51.472;6.466;2023-03-11T15:09:19;7.30;99.90
21149;DHT22;10732;51.472;6.466;2023-03-11T15:11:50;7.30;99.90
21149;DHT22;10732;51.472;6.466;2023-03-11T15:14:30;7.30;99.90
21149;DHT22;10732;51.472;6.466;2023-03-11T15:19:40;7.40;99.90
21149;DHT22;10732;51.472;6.466;2023-03-11T15:24:52;7.20;99.90
21149;DHT22;10732;51.472;6.466;2023-03-11T15:27:29;7.30;99.90
21149;DHT22;10732;51.472;6.466;2023-03-11T15:29:56;7.40;99.90
21149;DHT22;10732;51.472;6.466;2023-03-11T15:32:39;7.40;99.90
21149;DHT22;10732;51.472;6.466;2023-03-11T15:37:37;7.30;99.90
21149;DHT22;10732;51.472;6.466;2023-03-11T15:40:23;7.20;99.90
21149;DHT22;10732;51.472;6.466;2023-03-11T15:45:41;7.30;99.90
21149;DHT22;10732;51.472;6.466;2023-03-11T15:48:09;7.40;99.90
21149;DHT22;10732;51.472;6.466;2023-03-11T15:50:35;7.40;99.90
21149;DHT22;10732;51.472;6.466;2023-03-11T15:53:01;7.40;99.90
21149;DHT22;10732;51.472;6.466;2023-03-11T15:55:27;7.40;99.90
21149;DHT22;10732;51.472;6.466;2023-03-11T15:58:02;7.30;99.90
21149;DHT22;10732;51.472;6.466;2023-03-11T16:00:29;7.20;99.90
21149;DHT22;10732;51.472;6.466;2023-03-11T16:02:55;7.00;99.90
21149;DHT22;10732;51.472;6.466;2023-03-11T16:05:23;7.10;99.90
21149;DHT22;10732;51.472;6.466;2023-03-11T16:07:49;7.00;99.90
21149;DHT22;10732;51.472;6.466;2023-03-11T16:10:17;6.90;99.90
21149;DHT22;10732;51.472;6.466;2023-03-11T16:12:43;6.80;99.90
21149;DHT22;10732;51.472;6.466;2023-03-11T16:15:19;6.90;99.90
21149;DHT22;10732;51.472;6.466;2023-03-11T16:17:46;6.90;99.90
21149;DHT22;10732;51.472;6.466;2023-03-11T16:20:13;6.90;99.90
21149;DHT22;10732;51.472;6.466;2023-03-11T16:22:38;6.90;99.90
21149;DHT22;10732;51.472;6.466;2023-03-11T16:25:04;6.90;99.90
21149;DHT22;10732;51.472;6.466;2023-03-11T16:27:33;6.80;99.90
21149;DHT22;10732;51.472;6.466;2023-03-11T16:29:58;6.70;99.90
21149;DHT22;10732;51.472;6.466;2023-03-11T16:32:24;6.60;99.90
21149;DHT22;10732;51.472;6.466;2023-03-11T16:34:49;6.60;99.90
21149;DHT22;10732;51.472;6.466;2023-03-11T16:37:16;6.60;99.90
21149;DHT22;10732;51.472;6.466;2023-03-11T16:39:45;6.60;99.90
21149;DHT22;10732;51.472;6.466;2023-03-11T16:42:11;6.50;99.90
21149;DHT22;10732;51.472;6.466;2023-03-11T16:44:37;6.40;99.90
21149;DHT22;10732;51.472;6.466;2023-03-11T16:47:03;6.30;99.90
21149;DHT22;10732;51.472;6.466;2023-03-11T16:49:28;6.20;99.90
21149;DHT22;10732;51.472;6.466;2023-03-11T16:51:54;6.20;99.90
21149;DHT22;10732;51.472;6.466;2023-03-11T16:54:19;6.20;99.90
21149;DHT22;10732;51.472;6.466;2023-03-11T16:56:45;6.10;99.90
21149;DHT22;10732;51.472;6.466;2023-03-11T16:59:10;6.10;99.90
21149;DHT22;10732;51.472;6.466;2023-03-11T17:01:37;6.00;1.00
21149;DHT22;10732;51.472;6.466;2023-03-11T17:04:06;5.90;99.90
21149;DHT22;10732;51.472;6.466;2023-03-11T17:06:32;5.80;99.90
21149;DHT22;10732;51.472;6.466;2023-03-11T17:08:58;5.70;99.90
21149;DHT22;10732;51.472;6.466;2023-03-11T17:11:24;5.60;99.90
21149;DHT22;10732;51.472;6.466;2023-03-11T17:13:53;5.50;99.90
21149;DHT22;10732;51.472;6.466;2023-03-11T17:16:19;5.30;99.90
21149;DHT22;10732;51.472;6.466;2023-03-11T17:18:44;5.20;99.90
21149;DHT22;10732;51.472;6.466;2023-03-11T17:21:12;5.10;99.90
21149;DHT22;10732;51.472;6.466;2023-03-11T17:23:38;5.00;99.90
21149;DHT22;10732;51.472;6.466;2023-03-11T17:26:10;4.80;99.90
21149;DHT22;10732;51.472;6.466;2023-03-11T17:28:36;4.60;99.90